Etusivu
METAR-TAF:

METAR-TAF

Lentoasemat :

Rosecrans Memorial Airport

Saint Joseph, Missouri, Yhdysvallat

Leveyspiiri: 39-46-05N, Pituuspiiri: 094-54-33W, korkeus merenpinnasta: 251 m

Tämänhetkinen sää

Tämä raportti tehtiin 21 minuuttia sitten, kello 00.53 UTC
Tuuli 9 kn pohjoisesta
Lämpötila 1°C
Kosteus 75%
Ilmanpaine 1021 hPa
Näkyvyys: 16.1 km
selkeää

METAR: KSTJ 010053Z 35009KT 10SM CLR 01/M03 A3014 RMK AO2 SLP213 T00111028

Aika: 19:14 (01:14 UTC)

Sääennuste

Tämä raportti tehtiin 1 tunti ja 54 minuuttia sitten, kello 23.20 UTC
Ennuste voimassa 01. päivästä klo 00 UTC - 01. päivään klo 24 UTC
Tuuli 10 kn pohjoisesta
Näkyvyys: 10 km
selkeää
From 01. päivästä klo 0800 UTC
Tuuli 5 kn lännestä/lounaasta
Näkyvyys: 10 km
selkeää

TAF: KSTJ 282320Z 0100/0124 35010KT P6SM SKC FM010800 25005KT P6SM SKC

Säähavainnot ja -ennusteet yli 4000 lentoasemalta (METAR- ja TAF-raportit).

Käytössä olevat sääasemat on merkitty karttaan keltaisilla ja punaisilla pisteillä.

Aseta hiiri pisteen päälle nähdäksesi sääaseman nimen.

Klikkaa sitten nähdäksesi säähavainnot ja -ennusteet.

Kartan vaihtaminen: klikkaa mustalla rastilla varustettuja vihreitä pisteitä, niin voit zoomata sisään; viivalla varustettua vihreää pistettä, niin voit zoomata ulos tai vihreitä nuolia, niin pääset viereisille kartoille.


METAR-TAF: